sensor_id;sensor_type;location;lat;lon;timestamp;P1;durP1;ratioP1;P2;durP2;ratioP2
70126;SDS011;57491;42.694;23.314;2023-06-19T00:00:51;6.45;;;5.07;;
70126;SDS011;57491;42.694;23.314;2023-06-19T00:03:18;6.32;;;5.25;;
70126;SDS011;57491;42.694;23.314;2023-06-19T00:05:45;7.15;;;4.65;;
70126;SDS011;57491;42.694;23.314;2023-06-19T00:08:12;7.45;;;5.07;;
70126;SDS011;57491;42.694;23.314;2023-06-19T00:10:41;5.45;;;4.72;;
70126;SDS011;57491;42.694;23.314;2023-06-19T00:13:08;7.68;;;5.05;;
70126;SDS011;57491;42.694;23.314;2023-06-19T00:15:35;7.27;;;5.23;;
70126;SDS011;57491;42.694;23.314;2023-06-19T00:18:04;6.07;;;5.03;;
70126;SDS011;57491;42.694;23.314;2023-06-19T00:20:32;6.55;;;4.55;;
70126;SDS011;57491;42.694;23.314;2023-06-19T00:23:00;6.20;;;5.28;;
70126;SDS011;57491;42.694;23.314;2023-06-19T00:25:27;6.03;;;5.05;;
70126;SDS011;57491;42.694;23.314;2023-06-19T00:27:55;6.95;;;5.03;;
70126;SDS011;57491;42.694;23.314;2023-06-19T00:30:22;6.63;;;4.60;;
70126;SDS011;57491;42.694;23.314;2023-06-19T00:32:49;8.38;;;4.90;;
70126;SDS011;57491;42.694;23.314;2023-06-19T00:35:18;7.25;;;5.03;;
70126;SDS011;57491;42.694;23.314;2023-06-19T00:37:47;7.90;;;4.40;;
70126;SDS011;57491;42.694;23.314;2023-06-19T00:40:17;6.28;;;4.68;;
70126;SDS011;57491;42.694;23.314;2023-06-19T00:42:51;5.40;;;4.60;;
70126;SDS011;57491;42.694;23.314;2023-06-19T00:45:19;6.40;;;4.63;;
70126;SDS011;57491;42.694;23.314;2023-06-19T00:47:46;7.00;;;4.70;;
70126;SDS011;57491;42.694;23.314;2023-06-19T00:50:14;5.97;;;5.05;;
70126;SDS011;57491;42.694;23.314;2023-06-19T00:55:09;5.32;;;4.75;;
70126;SDS011;57491;42.694;23.314;2023-06-19T00:57:36;5.20;;;4.65;;
70126;SDS011;57491;42.694;23.314;2023-06-19T01:00:05;5.05;;;4.40;;
70126;SDS011;57491;42.694;23.314;2023-06-19T01:02:35;5.38;;;4.57;;
70126;SDS011;57491;42.694;23.314;2023-06-19T01:05:02;6.97;;;5.25;;
70126;SDS011;57491;42.694;23.314;2023-06-19T01:07:31;5.00;;;4.43;;
70126;SDS011;57491;42.694;23.314;2023-06-19T01:10:06;7.82;;;4.95;;
70126;SDS011;57491;42.694;23.314;2023-06-19T01:12:38;14.10;;;5.80;;
70126;SDS011;57491;42.694;23.314;2023-06-19T01:15:09;5.80;;;4.88;;
70126;SDS011;57491;42.694;23.314;2023-06-19T01:17:39;5.47;;;4.85;;
70126;SDS011;57491;42.694;23.314;2023-06-19T01:20:07;5.80;;;5.18;;
70126;SDS011;57491;42.694;23.314;2023-06-19T01:22:38;6.05;;;5.00;;
70126;SDS011;57491;42.694;23.314;2023-06-19T01:25:05;7.97;;;5.13;;
70126;SDS011;57491;42.694;23.314;2023-06-19T01:27:36;8.65;;;5.75;;
70126;SDS011;57491;42.694;23.314;2023-06-19T01:30:03;6.63;;;4.82;;
70126;SDS011;57491;42.694;23.314;2023-06-19T01:32:33;6.38;;;5.07;;
70126;SDS011;57491;42.694;23.314;2023-06-19T01:35:15;6.75;;;5.13;;
70126;SDS011;57491;42.694;23.314;2023-06-19T01:37:47;7.97;;;5.47;;
70126;SDS011;57491;42.694;23.314;2023-06-19T01:40:15;7.65;;;4.80;;
70126;SDS011;57491;42.694;23.314;2023-06-19T01:42:47;8.55;;;5.43;;
70126;SDS011;57491;42.694;23.314;2023-06-19T01:45:15;9.77;;;5.55;;
70126;SDS011;57491;42.694;23.314;2023-06-19T01:47:42;8.25;;;5.13;;
70126;SDS011;57491;42.694;23.314;2023-06-19T01:50:09;8.07;;;5.38;;
70126;SDS011;57491;42.694;23.314;2023-06-19T01:52:37;6.90;;;5.55;;
70126;SDS011;57491;42.694;23.314;2023-06-19T01:55:08;11.00;;;5.38;;
70126;SDS011;57491;42.694;23.314;2023-06-19T01:57:36;6.03;;;5.05;;
70126;SDS011;57491;42.694;23.314;2023-06-19T02:00:04;7.60;;;4.93;;
70126;SDS011;57491;42.694;23.314;2023-06-19T02:02:33;7.50;;;5.45;;
70126;SDS011;57491;42.694;23.314;2023-06-19T02:05:00;6.00;;;5.25;;
70126;SDS011;57491;42.694;23.314;2023-06-19T02:07:27;6.63;;;4.80;;
70126;SDS011;57491;42.694;23.314;2023-06-19T02:09:54;8.80;;;5.30;;
70126;SDS011;57491;42.694;23.314;2023-06-19T02:12:22;10.63;;;5.53;;
70126;SDS011;57491;42.694;23.314;2023-06-19T02:14:50;9.00;;;5.30;;
70126;SDS011;57491;42.694;23.314;2023-06-19T02:17:17;7.97;;;5.60;;
70126;SDS011;57491;42.694;23.314;2023-06-19T02:19:44;6.63;;;5.30;;
70126;SDS011;57491;42.694;23.314;2023-06-19T02:22:11;6.90;;;5.40;;
70126;SDS011;57491;42.694;23.314;2023-06-19T02:24:38;6.68;;;5.55;;
70126;SDS011;57491;42.694;23.314;2023-06-19T02:27:06;8.02;;;5.82;;
70126;SDS011;57491;42.694;23.314;2023-06-19T02:29:34;7.55;;;5.78;;
70126;SDS011;57491;42.694;23.314;2023-06-19T02:32:02;9.45;;;5.53;;
70126;SDS011;57491;42.694;23.314;2023-06-19T02:36:57;8.53;;;5.97;;
70126;SDS011;57491;42.694;23.314;2023-06-19T02:39:24;6.70;;;5.53;;
70126;SDS011;57491;42.694;23.314;2023-06-19T02:41:51;11.53;;;5.40;;
70126;SDS011;57491;42.694;23.314;2023-06-19T02:44:18;6.10;;;5.50;;
70126;SDS011;57491;42.694;23.314;2023-06-19T02:46:46;7.93;;;5.53;;
70126;SDS011;57491;42.694;23.314;2023-06-19T02:49:13;9.32;;;6.57;;
70126;SDS011;57491;42.694;23.314;2023-06-19T02:51:41;9.75;;;6.00;;
70126;SDS011;57491;42.694;23.314;2023-06-19T02:54:08;9.63;;;6.60;;
70126;SDS011;57491;42.694;23.314;2023-06-19T02:56:35;7.23;;;5.77;;
70126;SDS011;57491;42.694;23.314;2023-06-19T02:59:02;7.47;;;6.13;;
70126;SDS011;57491;42.694;23.314;2023-06-19T03:01:29;8.52;;;5.38;;
70126;SDS011;57491;42.694;23.314;2023-06-19T03:04:01;8.82;;;5.93;;
70126;SDS011;57491;42.694;23.314;2023-06-19T03:06:28;6.60;;;5.40;;
70126;SDS011;57491;42.694;23.314;2023-06-19T03:08:56;7.28;;;6.20;;
70126;SDS011;57491;42.694;23.314;2023-06-19T03:11:23;12.10;;;6.47;;
70126;SDS011;57491;42.694;23.314;2023-06-19T03:13:51;8.37;;;6.23;;
70126;SDS011;57491;42.694;23.314;2023-06-19T03:16:18;10.05;;;6.10;;
70126;SDS011;57491;42.694;23.314;2023-06-19T03:18:47;8.57;;;5.78;;
70126;SDS011;57491;42.694;23.314;2023-06-19T03:21:15;7.00;;;5.80;;
70126;SDS011;57491;42.694;23.314;2023-06-19T03:23:44;6.95;;;5.47;;
70126;SDS011;57491;42.694;23.314;2023-06-19T03:26:12;10.15;;;5.85;;
70126;SDS011;57491;42.694;23.314;2023-06-19T03:28:39;11.02;;;6.65;;
70126;SDS011;57491;42.694;23.314;2023-06-19T03:31:06;10.23;;;6.60;;
70126;SDS011;57491;42.694;23.314;2023-06-19T03:33:33;7.50;;;5.83;;
70126;SDS011;57491;42.694;23.314;2023-06-19T03:36:00;11.57;;;6.30;;
70126;SDS011;57491;42.694;23.314;2023-06-19T03:38:30;9.43;;;6.43;;
70126;SDS011;57491;42.694;23.314;2023-06-19T03:40:57;12.43;;;6.63;;
70126;SDS011;57491;42.694;23.314;2023-06-19T03:43:24;10.45;;;6.63;;
70126;SDS011;57491;42.694;23.314;2023-06-19T03:45:51;9.73;;;6.47;;
70126;SDS011;57491;42.694;23.314;2023-06-19T03:48:18;10.47;;;6.60;;
70126;SDS011;57491;42.694;23.314;2023-06-19T03:50:45;13.45;;;7.15;;
70126;SDS011;57491;42.694;23.314;2023-06-19T03:53:13;14.43;;;7.13;;
70126;SDS011;57491;42.694;23.314;2023-06-19T03:55:41;12.60;;;6.95;;
70126;SDS011;57491;42.694;23.314;2023-06-19T03:58:09;11.77;;;6.88;;
70126;SDS011;57491;42.694;23.314;2023-06-19T04:00:37;10.02;;;7.05;;
70126;SDS011;57491;42.694;23.314;2023-06-19T04:03:04;9.93;;;7.75;;
70126;SDS011;57491;42.694;23.314;2023-06-19T04:05:31;9.57;;;7.03;;
70126;SDS011;57491;42.694;23.314;2023-06-19T04:07:58;9.60;;;6.93;;
70126;SDS011;57491;42.694;23.314;2023-06-19T04:10:25;9.50;;;6.60;;
70126;SDS011;57491;42.694;23.314;2023-06-19T04:12:55;9.53;;;6.50;;
70126;SDS011;57491;42.694;23.314;2023-06-19T04:15:22;8.95;;;6.75;;
70126;SDS011;57491;42.694;23.314;2023-06-19T04:17:49;10.00;;;6.82;;
70126;SDS011;57491;42.694;23.314;2023-06-19T04:20:16;7.83;;;6.90;;
70126;SDS011;57491;42.694;23.314;2023-06-19T04:22:43;10.50;;;6.75;;
70126;SDS011;57491;42.694;23.314;2023-06-19T04:25:10;11.18;;;6.25;;
70126;SDS011;57491;42.694;23.314;2023-06-19T04:27:38;11.45;;;6.40;;
70126;SDS011;57491;42.694;23.314;2023-06-19T04:30:07;8.93;;;6.15;;
70126;SDS011;57491;42.694;23.314;2023-06-19T04:32:34;13.23;;;6.03;;
70126;SDS011;57491;42.694;23.314;2023-06-19T04:35:02;12.05;;;5.97;;
70126;SDS011;57491;42.694;23.314;2023-06-19T04:37:30;12.20;;;6.50;;
70126;SDS011;57491;42.694;23.314;2023-06-19T04:39:57;8.63;;;6.50;;
70126;SDS011;57491;42.694;23.314;2023-06-19T04:42:24;8.70;;;5.97;;
70126;SDS011;57491;42.694;23.314;2023-06-19T04:44:52;11.95;;;6.68;;
70126;SDS011;57491;42.694;23.314;2023-06-19T04:47:22;10.00;;;6.07;;
70126;SDS011;57491;42.694;23.314;2023-06-19T04:49:49;19.33;;;6.72;;
70126;SDS011;57491;42.694;23.314;2023-06-19T04:52:17;11.95;;;6.03;;
70126;SDS011;57491;42.694;23.314;2023-06-19T04:54:45;8.23;;;5.57;;
70126;SDS011;57491;42.694;23.314;2023-06-19T04:57:13;8.43;;;4.80;;
70126;SDS011;57491;42.694;23.314;2023-06-19T04:59:41;6.28;;;5.65;;
70126;SDS011;57491;42.694;23.314;2023-06-19T05:02:09;8.27;;;5.45;;
70126;SDS011;57491;42.694;23.314;2023-06-19T05:04:38;7.97;;;5.22;;
70126;SDS011;57491;42.694;23.314;2023-06-19T05:07:08;7.57;;;5.07;;
70126;SDS011;57491;42.694;23.314;2023-06-19T05:09:38;7.10;;;5.40;;
70126;SDS011;57491;42.694;23.314;2023-06-19T05:12:09;6.45;;;4.97;;
70126;SDS011;57491;42.694;23.314;2023-06-19T05:14:36;8.95;;;4.90;;
70126;SDS011;57491;42.694;23.314;2023-06-19T05:17:04;7.45;;;4.78;;
70126;SDS011;57491;42.694;23.314;2023-06-19T05:21:59;6.55;;;4.45;;
70126;SDS011;57491;42.694;23.314;2023-06-19T05:24:26;7.18;;;4.50;;
70126;SDS011;57491;42.694;23.314;2023-06-19T05:27:03;8.27;;;5.53;;
70126;SDS011;57491;42.694;23.314;2023-06-19T05:29:30;6.18;;;4.72;;
70126;SDS011;57491;42.694;23.314;2023-06-19T05:31:59;7.22;;;4.82;;
70126;SDS011;57491;42.694;23.314;2023-06-19T05:34:26;7.53;;;5.30;;
70126;SDS011;57491;42.694;23.314;2023-06-19T05:36:53;8.38;;;5.13;;
70126;SDS011;57491;42.694;23.314;2023-06-19T05:39:22;6.07;;;5.03;;
70126;SDS011;57491;42.694;23.314;2023-06-19T05:41:49;7.88;;;4.65;;
70126;SDS011;57491;42.694;23.314;2023-06-19T05:44:16;7.53;;;5.07;;
70126;SDS011;57491;42.694;23.314;2023-06-19T05:46:44;7.60;;;5.10;;
70126;SDS011;57491;42.694;23.314;2023-06-19T05:49:11;6.47;;;5.20;;
70126;SDS011;57491;42.694;23.314;2023-06-19T05:51:38;6.53;;;5.30;;
70126;SDS011;57491;42.694;23.314;2023-06-19T05:54:05;8.13;;;5.47;;
70126;SDS011;57491;42.694;23.314;2023-06-19T05:56:34;5.63;;;4.50;;
70126;SDS011;57491;42.694;23.314;2023-06-19T05:59:01;8.60;;;4.93;;
70126;SDS011;57491;42.694;23.314;2023-06-19T06:15:32;5.95;;;4.97;;
70126;SDS011;57491;42.694;23.314;2023-06-19T06:18:00;7.22;;;4.82;;
70126;SDS011;57491;42.694;23.314;2023-06-19T06:20:28;8.38;;;4.97;;
70126;SDS011;57491;42.694;23.314;2023-06-19T06:22:56;5.93;;;4.93;;
70126;SDS011;57491;42.694;23.314;2023-06-19T06:25:23;8.80;;;5.28;;
70126;SDS011;57491;42.694;23.314;2023-06-19T06:27:51;6.00;;;4.63;;
70126;SDS011;57491;42.694;23.314;2023-06-19T06:30:18;10.98;;;5.40;;
70126;SDS011;57491;42.694;23.314;2023-06-19T06:32:46;9.88;;;5.53;;
70126;SDS011;57491;42.694;23.314;2023-06-19T06:35:14;9.20;;;5.07;;
70126;SDS011;57491;42.694;23.314;2023-06-19T06:37:42;10.07;;;4.78;;
70126;SDS011;57491;42.694;23.314;2023-06-19T06:40:11;7.93;;;4.55;;
70126;SDS011;57491;42.694;23.314;2023-06-19T06:42:38;4.85;;;4.35;;
70126;SDS011;57491;42.694;23.314;2023-06-19T06:45:06;5.95;;;4.45;;
70126;SDS011;57491;42.694;23.314;2023-06-19T06:47:34;8.02;;;5.13;;
70126;SDS011;57491;42.694;23.314;2023-06-19T06:52:30;6.75;;;5.10;;
70126;SDS011;57491;42.694;23.314;2023-06-19T06:54:57;11.98;;;5.78;;
70126;SDS011;57491;42.694;23.314;2023-06-19T06:57:24;6.40;;;4.75;;
70126;SDS011;57491;42.694;23.314;2023-06-19T06:59:52;7.82;;;4.65;;
70126;SDS011;57491;42.694;23.314;2023-06-19T07:02:19;6.63;;;5.68;;
70126;SDS011;57491;42.694;23.314;2023-06-19T07:04:46;10.25;;;5.43;;
70126;SDS011;57491;42.694;23.314;2023-06-19T07:07:14;8.32;;;5.55;;
70126;SDS011;57491;42.694;23.314;2023-06-19T07:09:42;6.32;;;4.88;;
70126;SDS011;57491;42.694;23.314;2023-06-19T07:12:09;9.82;;;6.72;;
70126;SDS011;57491;42.694;23.314;2023-06-19T07:14:36;6.90;;;5.43;;
70126;SDS011;57491;42.694;23.314;2023-06-19T07:17:04;7.93;;;4.60;;
70126;SDS011;57491;42.694;23.314;2023-06-19T07:19:32;10.13;;;5.60;;
70126;SDS011;57491;42.694;23.314;2023-06-19T07:21:59;7.72;;;5.30;;
70126;SDS011;57491;42.694;23.314;2023-06-19T07:24:28;7.05;;;5.38;;
70126;SDS011;57491;42.694;23.314;2023-06-19T07:26:55;10.18;;;6.05;;
70126;SDS011;57491;42.694;23.314;2023-06-19T07:29:23;9.02;;;5.80;;
70126;SDS011;57491;42.694;23.314;2023-06-19T07:31:51;7.10;;;4.47;;
70126;SDS011;57491;42.694;23.314;2023-06-19T07:34:18;10.00;;;4.45;;
70126;SDS011;57491;42.694;23.314;2023-06-19T07:36:45;4.40;;;4.00;;
70126;SDS011;57491;42.694;23.314;2023-06-19T07:39:12;5.75;;;4.43;;
70126;SDS011;57491;42.694;23.314;2023-06-19T07:41:40;7.60;;;5.97;;
70126;SDS011;57491;42.694;23.314;2023-06-19T07:44:08;7.00;;;4.57;;
70126;SDS011;57491;42.694;23.314;2023-06-19T07:46:35;5.90;;;4.57;;
70126;SDS011;57491;42.694;23.314;2023-06-19T07:49:02;7.13;;;4.68;;
70126;SDS011;57491;42.694;23.314;2023-06-19T07:51:29;10.20;;;4.75;;
70126;SDS011;57491;42.694;23.314;2023-06-19T07:53:57;9.02;;;4.82;;
70126;SDS011;57491;42.694;23.314;2023-06-19T07:56:24;5.30;;;4.82;;
70126;SDS011;57491;42.694;23.314;2023-06-19T07:58:52;8.50;;;5.55;;
70126;SDS011;57491;42.694;23.314;2023-06-19T08:01:19;6.78;;;4.53;;
70126;SDS011;57491;42.694;23.314;2023-06-19T08:03:46;6.72;;;5.20;;
70126;SDS011;57491;42.694;23.314;2023-06-19T08:06:13;5.97;;;4.85;;
70126;SDS011;57491;42.694;23.314;2023-06-19T08:08:41;5.35;;;4.68;;
70126;SDS011;57491;42.694;23.314;2023-06-19T08:11:08;6.25;;;4.18;;
70126;SDS011;57491;42.694;23.314;2023-06-19T08:13:35;7.35;;;4.80;;
70126;SDS011;57491;42.694;23.314;2023-06-19T08:16:04;7.45;;;5.20;;
70126;SDS011;57491;42.694;23.314;2023-06-19T08:18:31;9.50;;;6.45;;
70126;SDS011;57491;42.694;23.314;2023-06-19T08:20:58;6.40;;;5.18;;
70126;SDS011;57491;42.694;23.314;2023-06-19T08:23:25;10.43;;;6.47;;
70126;SDS011;57491;42.694;23.314;2023-06-19T08:25:53;9.68;;;4.93;;
70126;SDS011;57491;42.694;23.314;2023-06-19T08:28:20;10.90;;;6.60;;
70126;SDS011;57491;42.694;23.314;2023-06-19T08:30:47;7.90;;;5.95;;
70126;SDS011;57491;42.694;23.314;2023-06-19T08:33:15;11.05;;;6.82;;
70126;SDS011;57491;42.694;23.314;2023-06-19T08:35:42;9.52;;;6.03;;
70126;SDS011;57491;42.694;23.314;2023-06-19T08:38:11;7.13;;;5.35;;
70126;SDS011;57491;42.694;23.314;2023-06-19T08:40:38;7.53;;;5.65;;
70126;SDS011;57491;42.694;23.314;2023-06-19T08:43:07;6.00;;;4.97;;
70126;SDS011;57491;42.694;23.314;2023-06-19T08:45:34;9.05;;;5.47;;
70126;SDS011;57491;42.694;23.314;2023-06-19T08:48:01;4.60;;;4.20;;
70126;SDS011;57491;42.694;23.314;2023-06-19T08:50:31;5.10;;;4.53;;
70126;SDS011;57491;42.694;23.314;2023-06-19T08:52:59;5.68;;;4.50;;
70126;SDS011;57491;42.694;23.314;2023-06-19T08:57:53;6.57;;;3.85;;
70126;SDS011;57491;42.694;23.314;2023-06-19T09:00:23;14.10;;;8.98;;
70126;SDS011;57491;42.694;23.314;2023-06-19T09:02:52;11.40;;;5.88;;
70126;SDS011;57491;42.694;23.314;2023-06-19T09:05:26;4.70;;;4.30;;
70126;SDS011;57491;42.694;23.314;2023-06-19T09:07:55;5.35;;;4.50;;
70126;SDS011;57491;42.694;23.314;2023-06-19T09:10:24;7.47;;;4.82;;
70126;SDS011;57491;42.694;23.314;2023-06-19T09:12:58;5.35;;;4.82;;
70126;SDS011;57491;42.694;23.314;2023-06-19T09:15:27;6.45;;;4.40;;
70126;SDS011;57491;42.694;23.314;2023-06-19T09:17:59;5.68;;;5.03;;
70126;SDS011;57491;42.694;23.314;2023-06-19T09:20:30;5.25;;;4.40;;
70126;SDS011;57491;42.694;23.314;2023-06-19T09:25:26;8.00;;;4.78;;
70126;SDS011;57491;42.694;23.314;2023-06-19T09:27:53;7.05;;;5.38;;
70126;SDS011;57491;42.694;23.314;2023-06-19T09:30:21;11.93;;;7.38;;
70126;SDS011;57491;42.694;23.314;2023-06-19T09:32:48;6.30;;;5.30;;
70126;SDS011;57491;42.694;23.314;2023-06-19T09:35:15;7.88;;;5.68;;
70126;SDS011;57491;42.694;23.314;2023-06-19T09:51:16;5.95;;;4.10;;
70126;SDS011;57491;42.694;23.314;2023-06-19T09:53:45;5.03;;;4.30;;
70126;SDS011;57491;42.694;23.314;2023-06-19T09:56:13;4.72;;;4.15;;
70126;SDS011;57491;42.694;23.314;2023-06-19T09:58:40;5.88;;;4.43;;
70126;SDS011;57491;42.694;23.314;2023-06-19T10:01:09;7.85;;;5.20;;
70126;SDS011;57491;42.694;23.314;2023-06-19T10:03:38;5.43;;;4.47;;
70126;SDS011;57491;42.694;23.314;2023-06-19T10:06:06;5.03;;;4.45;;
70126;SDS011;57491;42.694;23.314;2023-06-19T10:08:42;4.45;;;4.05;;
70126;SDS011;57491;42.694;23.314;2023-06-19T10:11:11;5.35;;;4.80;;
70126;SDS011;57491;42.694;23.314;2023-06-19T10:13:39;5.50;;;4.93;;
70126;SDS011;57491;42.694;23.314;2023-06-19T10:16:07;4.53;;;4.13;;
70126;SDS011;57491;42.694;23.314;2023-06-19T10:18:45;7.00;;;4.70;;
70126;SDS011;57491;42.694;23.314;2023-06-19T10:21:18;5.25;;;4.75;;
70126;SDS011;57491;42.694;23.314;2023-06-19T10:23:52;4.32;;;3.90;;
70126;SDS011;57491;42.694;23.314;2023-06-19T10:26:28;6.00;;;4.70;;
70126;SDS011;57491;42.694;23.314;2023-06-19T10:28:56;10.70;;;4.85;;
70126;SDS011;57491;42.694;23.314;2023-06-19T10:31:23;8.65;;;4.95;;
70126;SDS011;57491;42.694;23.314;2023-06-19T10:33:50;5.35;;;4.57;;
70126;SDS011;57491;42.694;23.314;2023-06-19T10:36:19;7.15;;;4.85;;
70126;SDS011;57491;42.694;23.314;2023-06-19T10:38:48;5.47;;;4.95;;
70126;SDS011;57491;42.694;23.314;2023-06-19T10:41:15;5.30;;;4.72;;
70126;SDS011;57491;42.694;23.314;2023-06-19T10:43:52;6.20;;;4.88;;
70126;SDS011;57491;42.694;23.314;2023-06-19T10:46:20;4.80;;;4.30;;
70126;SDS011;57491;42.694;23.314;2023-06-19T10:48:48;4.80;;;4.22;;
70126;SDS011;57491;42.694;23.314;2023-06-19T10:51:19;5.00;;;4.38;;
70126;SDS011;57491;42.694;23.314;2023-06-19T10:53:46;4.82;;;3.83;;
70126;SDS011;57491;42.694;23.314;2023-06-19T10:56:13;5.60;;;4.90;;
70126;SDS011;57491;42.694;23.314;2023-06-19T10:58:40;8.13;;;5.32;;
70126;SDS011;57491;42.694;23.314;2023-06-19T11:03:35;5.35;;;4.85;;
70126;SDS011;57491;42.694;23.314;2023-06-19T11:06:02;7.05;;;6.47;;
70126;SDS011;57491;42.694;23.314;2023-06-19T11:08:30;5.95;;;4.78;;
70126;SDS011;57491;42.694;23.314;2023-06-19T11:10:57;5.82;;;5.25;;
70126;SDS011;57491;42.694;23.314;2023-06-19T11:13:27;5.78;;;5.28;;
70126;SDS011;57491;42.694;23.314;2023-06-19T11:15:54;7.45;;;6.05;;
70126;SDS011;57491;42.694;23.314;2023-06-19T11:20:49;7.85;;;6.70;;
70126;SDS011;57491;42.694;23.314;2023-06-19T11:23:24;10.38;;;5.75;;
70126;SDS011;57491;42.694;23.314;2023-06-19T11:26:01;6.15;;;5.07;;
70126;SDS011;57491;42.694;23.314;2023-06-19T11:28:29;7.05;;;5.20;;
70126;SDS011;57491;42.694;23.314;2023-06-19T11:33:27;7.10;;;4.90;;
70126;SDS011;57491;42.694;23.314;2023-06-19T11:35:55;5.90;;;5.35;;
70126;SDS011;57491;42.694;23.314;2023-06-19T11:38:28;5.70;;;5.20;;
70126;SDS011;57491;42.694;23.314;2023-06-19T11:40:56;4.80;;;4.40;;
70126;SDS011;57491;42.694;23.314;2023-06-19T11:43:23;8.20;;;4.82;;
70126;SDS011;57491;42.694;23.314;2023-06-19T11:45:51;7.50;;;5.97;;
70126;SDS011;57491;42.694;23.314;2023-06-19T11:48:22;5.53;;;5.00;;
70126;SDS011;57491;42.694;23.314;2023-06-19T11:50:51;5.75;;;4.78;;
70126;SDS011;57491;42.694;23.314;2023-06-19T11:53:19;6.60;;;5.47;;
70126;SDS011;57491;42.694;23.314;2023-06-19T11:58:14;7.68;;;5.07;;
70126;SDS011;57491;42.694;23.314;2023-06-19T12:00:42;5.55;;;5.05;;
70126;SDS011;57491;42.694;23.314;2023-06-19T12:03:09;5.22;;;4.60;;
70126;SDS011;57491;42.694;23.314;2023-06-19T12:05:36;5.38;;;4.88;;
70126;SDS011;57491;42.694;23.314;2023-06-19T12:08:04;6.03;;;4.70;;
70126;SDS011;57491;42.694;23.314;2023-06-19T12:10:32;8.25;;;4.95;;
70126;SDS011;57491;42.694;23.314;2023-06-19T12:12:59;6.63;;;6.03;;
70126;SDS011;57491;42.694;23.314;2023-06-19T12:15:28;5.68;;;5.10;;
70126;SDS011;57491;42.694;23.314;2023-06-19T12:17:55;6.35;;;5.22;;
70126;SDS011;57491;42.694;23.314;2023-06-19T12:20:23;8.25;;;5.30;;
70126;SDS011;57491;42.694;23.314;2023-06-19T12:22:50;5.22;;;4.72;;
70126;SDS011;57491;42.694;23.314;2023-06-19T12:30:12;4.75;;;4.30;;
70126;SDS011;57491;42.694;23.314;2023-06-19T12:32:40;7.10;;;5.22;;
70126;SDS011;57491;42.694;23.314;2023-06-19T12:35:08;5.70;;;5.10;;
70126;SDS011;57491;42.694;23.314;2023-06-19T12:37:35;6.53;;;5.13;;
70126;SDS011;57491;42.694;23.314;2023-06-19T12:40:02;6.43;;;4.97;;
70126;SDS011;57491;42.694;23.314;2023-06-19T12:42:34;7.13;;;5.22;;
70126;SDS011;57491;42.694;23.314;2023-06-19T12:49:56;8.10;;;6.40;;
70126;SDS011;57491;42.694;23.314;2023-06-19T12:52:24;9.20;;;5.30;;
70126;SDS011;57491;42.694;23.314;2023-06-19T12:54:51;9.55;;;5.28;;
70126;SDS011;57491;42.694;23.314;2023-06-19T12:57:18;10.23;;;5.45;;
70126;SDS011;57491;42.694;23.314;2023-06-19T13:04:39;6.28;;;4.78;;
70126;SDS011;57491;42.694;23.314;2023-06-19T13:07:08;6.13;;;4.88;;
70126;SDS011;57491;42.694;23.314;2023-06-19T13:09:35;5.75;;;4.50;;
70126;SDS011;57491;42.694;23.314;2023-06-19T13:12:02;4.80;;;4.40;;
70126;SDS011;57491;42.694;23.314;2023-06-19T13:16:57;5.20;;;4.70;;
70126;SDS011;57491;42.694;23.314;2023-06-19T13:19:25;8.48;;;4.45;;
70126;SDS011;57491;42.694;23.314;2023-06-19T13:21:52;4.78;;;4.20;;
70126;SDS011;57491;42.694;23.314;2023-06-19T13:24:20;5.57;;;4.82;;
70126;SDS011;57491;42.694;23.314;2023-06-19T13:26:47;7.50;;;4.60;;
70126;SDS011;57491;42.694;23.314;2023-06-19T13:29:15;5.63;;;4.82;;
70126;SDS011;57491;42.694;23.314;2023-06-19T13:31:42;5.70;;;4.55;;
70126;SDS011;57491;42.694;23.314;2023-06-19T13:34:09;5.05;;;4.53;;
70126;SDS011;57491;42.694;23.314;2023-06-19T13:36:36;6.32;;;4.32;;
70126;SDS011;57491;42.694;23.314;2023-06-19T13:39:03;5.35;;;4.85;;
70126;SDS011;57491;42.694;23.314;2023-06-19T13:41:32;5.30;;;4.80;;
70126;SDS011;57491;42.694;23.314;2023-06-19T13:43:59;6.18;;;4.63;;
70126;SDS011;57491;42.694;23.314;2023-06-19T13:46:27;4.88;;;4.18;;
70126;SDS011;57491;42.694;23.314;2023-06-19T13:53:49;4.72;;;4.22;;
70126;SDS011;57491;42.694;23.314;2023-06-19T13:56:17;6.03;;;4.22;;
70126;SDS011;57491;42.694;23.314;2023-06-19T13:58:46;7.40;;;4.03;;
70126;SDS011;57491;42.694;23.314;2023-06-19T14:01:13;4.95;;;4.45;;
70126;SDS011;57491;42.694;23.314;2023-06-19T14:03:40;5.10;;;4.60;;
70126;SDS011;57491;42.694;23.314;2023-06-19T14:06:07;5.45;;;4.07;;
70126;SDS011;57491;42.694;23.314;2023-06-19T14:08:35;5.10;;;4.60;;
70126;SDS011;57491;42.694;23.314;2023-06-19T14:11:02;4.88;;;4.43;;
70126;SDS011;57491;42.694;23.314;2023-06-19T14:13:29;5.53;;;4.70;;
70126;SDS011;57491;42.694;23.314;2023-06-19T14:15:57;6.13;;;4.70;;
70126;SDS011;57491;42.694;23.314;2023-06-19T14:18:24;6.05;;;4.38;;
70126;SDS011;57491;42.694;23.314;2023-06-19T14:20:51;4.95;;;4.50;;
70126;SDS011;57491;42.694;23.314;2023-06-19T14:23:18;6.18;;;5.05;;
70126;SDS011;57491;42.694;23.314;2023-06-19T14:28:13;4.90;;;4.25;;
70126;SDS011;57491;42.694;23.314;2023-06-19T14:30:40;4.40;;;3.97;;
70126;SDS011;57491;42.694;23.314;2023-06-19T14:33:09;6.72;;;4.88;;
70126;SDS011;57491;42.694;23.314;2023-06-19T14:35:40;8.07;;;5.10;;
70126;SDS011;57491;42.694;23.314;2023-06-19T14:38:08;10.18;;;5.18;;
70126;SDS011;57491;42.694;23.314;2023-06-19T14:40:35;4.38;;;3.97;;
70126;SDS011;57491;42.694;23.314;2023-06-19T14:43:02;7.65;;;4.85;;
70126;SDS011;57491;42.694;23.314;2023-06-19T14:45:30;5.22;;;4.30;;
70126;SDS011;57491;42.694;23.314;2023-06-19T14:47:57;5.18;;;4.55;;
70126;SDS011;57491;42.694;23.314;2023-06-19T14:50:26;4.78;;;4.38;;
70126;SDS011;57491;42.694;23.314;2023-06-19T14:52:53;6.18;;;4.40;;
70126;SDS011;57491;42.694;23.314;2023-06-19T14:55:20;6.30;;;4.68;;
70126;SDS011;57491;42.694;23.314;2023-06-19T14:57:47;6.20;;;5.40;;
70126;SDS011;57491;42.694;23.314;2023-06-19T15:00:14;5.57;;;5.05;;
70126;SDS011;57491;42.694;23.314;2023-06-19T15:02:42;5.60;;;4.78;;
70126;SDS011;57491;42.694;23.314;2023-06-19T15:05:09;5.70;;;5.15;;
70126;SDS011;57491;42.694;23.314;2023-06-19T15:07:37;6.30;;;5.60;;
70126;SDS011;57491;42.694;23.314;2023-06-19T15:10:05;7.05;;;5.10;;
70126;SDS011;57491;42.694;23.314;2023-06-19T15:12:32;5.38;;;4.88;;
70126;SDS011;57491;42.694;23.314;2023-06-19T15:15:00;12.25;;;5.70;;
70126;SDS011;57491;42.694;23.314;2023-06-19T15:19:54;6.47;;;5.20;;
70126;SDS011;57491;42.694;23.314;2023-06-19T15:22:21;6.03;;;5.20;;
70126;SDS011;57491;42.694;23.314;2023-06-19T15:24:49;7.82;;;5.25;;
70126;SDS011;57491;42.694;23.314;2023-06-19T15:27:16;6.95;;;5.60;;
70126;SDS011;57491;42.694;23.314;2023-06-19T15:29:43;7.20;;;5.50;;
70126;SDS011;57491;42.694;23.314;2023-06-19T15:32:10;5.90;;;5.32;;
70126;SDS011;57491;42.694;23.314;2023-06-19T15:34:38;11.30;;;5.68;;
70126;SDS011;57491;42.694;23.314;2023-06-19T15:37:06;6.40;;;5.40;;
70126;SDS011;57491;42.694;23.314;2023-06-19T15:39:33;7.80;;;6.05;;
70126;SDS011;57491;42.694;23.314;2023-06-19T15:42:02;6.30;;;5.70;;
70126;SDS011;57491;42.694;23.314;2023-06-19T15:44:29;8.60;;;6.03;;
70126;SDS011;57491;42.694;23.314;2023-06-19T15:46:56;7.10;;;5.38;;
70126;SDS011;57491;42.694;23.314;2023-06-19T15:49:23;6.25;;;4.80;;
70126;SDS011;57491;42.694;23.314;2023-06-19T15:51:51;7.55;;;5.78;;
70126;SDS011;57491;42.694;23.314;2023-06-19T15:56:45;8.48;;;6.07;;
70126;SDS011;57491;42.694;23.314;2023-06-19T15:59:14;11.80;;;5.72;;